createdAt,value
2023-02-28T00:00:03.619Z,100.00
2023-02-28T00:02:49.064Z,100.00
2023-02-28T00:05:29.433Z,100.00
2023-02-28T00:08:29.786Z,100.00
2023-02-28T00:11:17.587Z,100.00
2023-02-28T00:14:03.894Z,100.00
2023-02-28T00:16:50.460Z,100.00
2023-02-28T00:19:32.363Z,99.65
2023-02-28T00:22:13.102Z,97.87
2023-02-28T00:24:54.434Z,91.58
2023-02-28T00:27:44.326Z,88.39
2023-02-28T00:30:29.558Z,86.67
2023-02-28T00:33:13.025Z,87.26
2023-02-28T00:36:06.942Z,85.70
2023-02-28T00:38:47.203Z,86.42
2023-02-28T00:41:29.587Z,89.06
2023-02-28T00:44:23.577Z,90.55
2023-02-28T00:47:07.671Z,92.98
2023-02-28T00:50:05.740Z,94.22
2023-02-28T00:52:44.201Z,94.02
2023-02-28T00:55:30.973Z,94.64
2023-02-28T00:58:21.579Z,95.29
2023-02-28T01:01:11.831Z,95.83
2023-02-28T01:03:52.994Z,95.73
2023-02-28T01:06:33.380Z,96.42
2023-02-28T01:09:16.943Z,96.72
2023-02-28T01:11:57.747Z,96.60
2023-02-28T01:14:35.705Z,96.35
2023-02-28T01:17:18.947Z,96.11
2023-02-28T01:20:11.328Z,95.56
2023-02-28T01:22:56.679Z,94.62
2023-02-28T01:25:54.409Z,94.08
2023-02-28T01:28:51.878Z,93.33
2023-02-28T01:31:42.012Z,93.73
2023-02-28T01:34:31.775Z,94.06
2023-02-28T01:37:10.379Z,93.63
2023-02-28T01:39:53.662Z,93.66
2023-02-28T01:42:29.394Z,94.57
2023-02-28T01:45:18.105Z,94.93
2023-02-28T01:48:07.895Z,94.09
2023-02-28T01:50:54.698Z,93.90
2023-02-28T01:54:02.404Z,94.26
2023-02-28T01:56:54.193Z,94.80
2023-02-28T01:59:56.369Z,93.47
2023-02-28T02:02:40.696Z,93.30
2023-02-28T02:05:18.821Z,93.13
2023-02-28T02:08:13.507Z,93.34
2023-02-28T02:10:55.186Z,93.33
2023-02-28T02:14:08.805Z,93.99
2023-02-28T02:17:05.771Z,94.06
2023-02-28T02:20:02.801Z,94.56
2023-02-28T02:23:09.867Z,94.67
2023-02-28T02:26:09.888Z,94.48
2023-02-28T02:29:21.101Z,94.98
2023-02-28T02:32:36.066Z,93.83
2023-02-28T02:35:42.172Z,93.56
2023-02-28T02:38:44.642Z,94.30
2023-02-28T02:41:34.970Z,93.19
2023-02-28T02:44:28.020Z,92.88
2023-02-28T02:47:32.116Z,92.47
2023-02-28T02:50:10.723Z,93.86
2023-02-28T02:52:59.854Z,92.79
2023-02-28T02:55:49.169Z,92.20
2023-02-28T02:58:37.449Z,91.98
2023-02-28T03:01:32.363Z,91.93
2023-02-28T03:04:20.375Z,91.55
2023-02-28T03:07:07.440Z,91.70
2023-02-28T03:10:00.190Z,92.00
2023-02-28T03:13:04.457Z,92.15
2023-02-28T03:15:58.420Z,92.87
2023-02-28T03:19:01.473Z,93.54
2023-02-28T03:21:44.770Z,94.65
2023-02-28T03:24:46.034Z,95.03
2023-02-28T03:28:02.864Z,95.72
2023-02-28T03:31:04.491Z,94.15
2023-02-28T03:33:55.774Z,93.39
2023-02-28T03:36:45.102Z,92.42
2023-02-28T03:39:41.624Z,92.25
2023-02-28T03:42:29.840Z,92.24
2023-02-28T03:45:28.326Z,90.87
2023-02-28T03:48:27.706Z,90.77
2023-02-28T03:51:17.532Z,91.16
2023-02-28T03:54:04.357Z,91.32
2023-02-28T03:57:06.001Z,91.48
2023-02-28T04:00:05.395Z,91.58
2023-02-28T04:02:59.181Z,90.36
2023-02-28T04:05:59.426Z,90.56
2023-02-28T04:08:44.436Z,90.94
2023-02-28T04:12:00.146Z,91.83
2023-02-28T04:14:37.837Z,92.30
2023-02-28T04:17:24.699Z,92.48
2023-02-28T04:19:59.665Z,92.85
2023-02-28T04:22:32.204Z,92.61
2023-02-28T04:25:28.190Z,90.91
2023-02-28T04:28:16.739Z,90.46
2023-02-28T04:31:00.970Z,90.50
2023-02-28T04:33:37.554Z,90.04
2023-02-28T04:39:27.557Z,89.53
2023-02-28T04:42:28.353Z,89.30
2023-02-28T04:45:20.281Z,89.52
2023-02-28T04:48:04.074Z,88.53
2023-02-28T04:51:00.794Z,88.58
2023-02-28T04:53:45.327Z,86.86
2023-02-28T04:56:33.041Z,87.02
2023-02-28T04:59:19.288Z,87.95
2023-02-28T05:02:08.449Z,87.66
2023-02-28T05:04:49.209Z,87.81
2023-02-28T05:07:36.130Z,88.03
2023-02-28T05:10:11.435Z,88.54
2023-02-28T05:13:03.426Z,89.00
2023-02-28T05:15:49.279Z,89.52
2023-02-28T05:18:46.898Z,89.69
2023-02-28T05:22:04.945Z,89.74
2023-02-28T05:24:53.189Z,88.16
2023-02-28T05:27:36.410Z,89.15
2023-02-28T05:30:22.798Z,89.97
2023-02-28T05:33:16.985Z,88.63
2023-02-28T05:35:59.439Z,87.91
2023-02-28T05:38:34.286Z,88.17
2023-02-28T05:41:22.201Z,87.46
2023-02-28T05:44:02.437Z,88.55
2023-02-28T05:46:48.477Z,89.49
2023-02-28T05:49:35.848Z,89.66
2023-02-28T05:52:19.051Z,90.17
2023-02-28T05:55:10.649Z,90.54
2023-02-28T05:57:56.994Z,91.38
2023-02-28T06:00:33.670Z,91.71
2023-02-28T06:03:19.118Z,91.63
2023-02-28T06:06:03.927Z,89.84
2023-02-28T06:08:54.690Z,88.61
2023-02-28T06:11:33.410Z,88.90
2023-02-28T06:14:24.893Z,86.92
2023-02-28T06:17:11.062Z,85.10
2023-02-28T06:20:03.498Z,85.87
2023-02-28T06:23:00.441Z,85.64
2023-02-28T06:25:48.745Z,84.12
2023-02-28T06:28:44.569Z,81.96
2023-02-28T06:31:34.907Z,80.89
2023-02-28T06:34:18.255Z,80.88
2023-02-28T06:37:05.806Z,80.37
2023-02-28T06:39:46.522Z,79.01
2023-02-28T06:42:32.527Z,79.24
2023-02-28T06:45:31.723Z,79.13
2023-02-28T06:48:15.202Z,77.45
2023-02-28T06:50:51.128Z,76.21
2023-02-28T06:53:39.463Z,77.25
2023-02-28T06:56:18.941Z,76.39
2023-02-28T06:59:08.858Z,76.17
2023-02-28T07:01:58.491Z,76.69
2023-02-28T07:04:35.240Z,74.93
2023-02-28T07:07:22.243Z,74.49
2023-02-28T07:10:14.775Z,73.47
2023-02-28T07:13:08.516Z,71.58
2023-02-28T07:16:14.794Z,71.17
2023-02-28T07:19:02.399Z,67.72
2023-02-28T07:21:41.429Z,68.69
2023-02-28T07:24:25.385Z,69.25
2023-02-28T07:27:14.469Z,69.01
2023-02-28T07:30:06.223Z,66.52
2023-02-28T07:33:02.116Z,67.98
2023-02-28T07:35:53.937Z,67.03
2023-02-28T07:38:38.556Z,66.66
2023-02-28T07:41:25.805Z,66.12
2023-02-28T07:44:10.039Z,65.66
2023-02-28T07:46:54.429Z,64.78
2023-02-28T07:49:38.429Z,64.82
2023-02-28T07:52:24.732Z,64.07
2023-02-28T07:55:11.765Z,63.79
2023-02-28T07:57:52.780Z,62.49
2023-02-28T08:00:33.920Z,64.02
2023-02-28T08:03:17.512Z,63.67
2023-02-28T08:05:58.093Z,62.50
2023-02-28T08:08:46.600Z,62.31
2023-02-28T08:11:35.846Z,62.10
2023-02-28T08:14:22.691Z,62.65
2023-02-28T08:17:12.577Z,63.10
2023-02-28T08:19:59.903Z,62.85
2023-02-28T08:22:45.993Z,60.96
2023-02-28T08:25:18.536Z,58.21
2023-02-28T08:28:04.132Z,60.14
2023-02-28T08:30:56.384Z,59.17
2023-02-28T08:33:43.075Z,57.39
2023-02-28T08:36:19.480Z,60.86
2023-02-28T08:39:11.462Z,59.07
2023-02-28T08:42:02.083Z,57.29
2023-02-28T08:44:53.243Z,56.58
2023-02-28T08:47:49.624Z,55.11
2023-02-28T08:50:32.850Z,56.04
2023-02-28T08:53:14.535Z,54.68
2023-02-28T08:56:05.454Z,55.09
2023-02-28T08:58:58.724Z,55.83
2023-02-28T09:01:47.771Z,55.11
2023-02-28T09:04:26.000Z,55.73
2023-02-28T09:07:04.445Z,55.93
2023-02-28T09:09:56.931Z,53.75
2023-02-28T09:12:38.621Z,54.15
2023-02-28T09:15:18.978Z,53.91
2023-02-28T09:17:58.990Z,55.19
2023-02-28T09:20:36.660Z,53.02
2023-02-28T09:23:31.369Z,53.89
2023-02-28T09:26:24.627Z,52.00
2023-02-28T09:29:08.002Z,53.86
2023-02-28T09:32:00.435Z,53.05
2023-02-28T09:34:44.113Z,52.81
2023-02-28T09:37:43.803Z,53.32
2023-02-28T09:40:31.751Z,52.47
2023-02-28T09:43:07.124Z,52.35
2023-02-28T09:46:12.891Z,52.99
2023-02-28T09:48:59.084Z,52.79
2023-02-28T09:52:07.009Z,51.55
2023-02-28T09:54:58.774Z,51.43
2023-02-28T09:57:54.843Z,51.54
2023-02-28T10:00:38.047Z,52.73
2023-02-28T10:03:51.329Z,51.51
2023-02-28T10:06:57.495Z,53.07
2023-02-28T10:09:42.791Z,52.48
2023-02-28T10:12:29.009Z,52.24
2023-02-28T10:15:13.754Z,52.47
2023-02-28T10:18:08.359Z,50.93
2023-02-28T10:20:59.814Z,52.93
2023-02-28T10:23:44.855Z,50.50
2023-02-28T10:26:36.766Z,52.26
2023-02-28T10:29:17.529Z,51.12
2023-02-28T10:32:00.260Z,51.97
2023-02-28T10:34:47.365Z,51.76
2023-02-28T10:37:27.425Z,53.20
2023-02-28T10:40:28.495Z,52.28
2023-02-28T10:43:22.408Z,51.95
2023-02-28T10:46:27.047Z,51.09
2023-02-28T10:49:14.272Z,52.31
2023-02-28T10:54:42.375Z,51.51
2023-02-28T10:57:34.409Z,51.90
2023-02-28T11:00:31.022Z,50.77
2023-02-28T11:03:34.760Z,50.56
2023-02-28T11:06:29.802Z,49.83
2023-02-28T11:09:33.849Z,50.40
2023-02-28T11:12:28.688Z,50.46
2023-02-28T11:15:33.441Z,51.29
2023-02-28T11:18:28.352Z,50.46
2023-02-28T11:21:12.617Z,51.71
2023-02-28T11:24:02.417Z,50.47
2023-02-28T11:27:14.281Z,52.11
2023-02-28T11:29:53.688Z,51.33
2023-02-28T11:32:40.213Z,50.78
2023-02-28T11:35:53.425Z,51.40
2023-02-28T11:38:40.102Z,50.23
2023-02-28T11:41:41.142Z,51.71
2023-02-28T11:44:46.970Z,50.80
2023-02-28T11:48:01.767Z,51.01
2023-02-28T11:51:14.109Z,50.22
2023-02-28T11:54:25.347Z,49.75
2023-02-28T11:57:27.974Z,47.72
2023-02-28T12:00:25.183Z,47.77
2023-02-28T12:03:29.757Z,47.97
2023-02-28T12:06:44.647Z,46.83
2023-02-28T12:09:28.261Z,49.25
2023-02-28T12:12:40.013Z,48.77
2023-02-28T12:15:59.419Z,50.12
2023-02-28T12:18:57.534Z,49.05
2023-02-28T12:21:59.917Z,48.79
2023-02-28T12:25:08.249Z,49.64
2023-02-28T12:27:53.189Z,50.05
2023-02-28T12:31:15.100Z,49.51
2023-02-28T12:33:54.425Z,49.64
2023-02-28T12:36:38.312Z,49.66
2023-02-28T12:39:41.706Z,50.03
2023-02-28T12:42:39.182Z,49.86
2023-02-28T12:45:28.387Z,48.35
2023-02-28T12:48:26.985Z,47.75
2023-02-28T12:51:20.601Z,47.45
2023-02-28T12:54:40.393Z,48.47
2023-02-28T12:57:37.367Z,48.26
2023-02-28T13:00:33.391Z,46.08
2023-02-28T13:03:38.699Z,47.72
2023-02-28T13:06:45.479Z,47.81
2023-02-28T13:09:44.563Z,49.29
2023-02-28T13:12:41.790Z,47.02
2023-02-28T13:15:36.399Z,47.58
2023-02-28T13:18:54.418Z,47.70
2023-02-28T13:21:45.629Z,46.38
2023-02-28T13:24:52.381Z,45.71
2023-02-28T13:27:50.358Z,46.03
2023-02-28T13:31:05.023Z,44.89
2023-02-28T13:34:08.414Z,45.45
2023-02-28T13:36:57.338Z,46.43
2023-02-28T13:40:24.501Z,45.42
2023-02-28T13:43:16.702Z,46.46
2023-02-28T13:46:20.763Z,48.29
2023-02-28T13:49:19.600Z,46.68
2023-02-28T13:52:20.414Z,47.56
2023-02-28T13:55:25.997Z,48.61
2023-02-28T13:58:26.029Z,49.46
2023-02-28T14:01:56.544Z,49.22
2023-02-28T14:05:31.010Z,48.97
2023-02-28T14:08:30.209Z,49.28
2023-02-28T14:11:35.156Z,49.37
2023-02-28T14:14:33.620Z,50.54
2023-02-28T14:17:20.890Z,49.90
2023-02-28T14:20:01.552Z,49.67
2023-02-28T14:22:40.589Z,50.01
2023-02-28T14:25:38.031Z,50.76
2023-02-28T14:28:28.992Z,50.64
2023-02-28T14:31:30.551Z,50.54
2023-02-28T14:34:50.476Z,51.43
2023-02-28T14:37:28.543Z,51.61
2023-02-28T14:40:10.887Z,51.20
2023-02-28T14:43:04.258Z,50.86
2023-02-28T14:45:59.598Z,50.82
2023-02-28T14:48:45.397Z,51.74
2023-02-28T14:51:33.258Z,52.38
2023-02-28T14:54:27.553Z,52.70
2023-02-28T14:57:18.239Z,53.89
2023-02-28T15:00:08.430Z,54.04
2023-02-28T15:02:50.287Z,53.72
2023-02-28T15:05:40.849Z,54.83
2023-02-28T15:08:22.615Z,54.92
2023-02-28T15:11:22.828Z,55.63
2023-02-28T15:14:33.239Z,56.21
2023-02-28T15:17:41.343Z,56.77
2023-02-28T15:20:23.620Z,57.05
2023-02-28T15:23:06.189Z,57.72
2023-02-28T15:25:54.438Z,58.27
2023-02-28T15:28:35.029Z,58.46
2023-02-28T15:31:39.038Z,59.06
2023-02-28T15:34:51.132Z,59.24
2023-02-28T15:37:55.442Z,59.03
2023-02-28T15:41:03.454Z,58.90
2023-02-28T15:43:49.397Z,59.11
2023-02-28T15:46:34.731Z,59.57
2023-02-28T15:49:25.081Z,59.63
2023-02-28T15:52:15.516Z,59.56
2023-02-28T15:55:13.692Z,60.41
2023-02-28T15:57:59.782Z,60.71
2023-02-28T16:00:50.586Z,60.61
2023-02-28T16:03:52.002Z,61.05
2023-02-28T16:06:52.372Z,61.33
2023-02-28T16:09:36.996Z,61.23
2023-02-28T16:12:28.223Z,62.08
2023-02-28T16:15:27.150Z,62.27
2023-02-28T16:18:09.406Z,62.76
2023-02-28T16:21:01.592Z,63.36
2023-02-28T16:23:47.405Z,63.12
2023-02-28T16:26:31.355Z,63.85
2023-02-28T16:29:22.321Z,63.76
2023-02-28T16:32:30.718Z,63.50
2023-02-28T16:35:25.227Z,64.61
2023-02-28T16:38:03.382Z,64.61
2023-02-28T16:40:44.908Z,64.38
2023-02-28T16:43:40.191Z,64.12
2023-02-28T16:46:16.319Z,64.91
2023-02-28T16:49:05.875Z,64.99
2023-02-28T16:51:44.134Z,65.06
2023-02-28T16:54:29.513Z,65.34
2023-02-28T16:57:17.509Z,65.71
2023-02-28T17:00:09.061Z,66.75
2023-02-28T17:03:08.262Z,66.99
2023-02-28T17:05:56.072Z,67.10
2023-02-28T17:08:40.044Z,67.15
2023-02-28T17:11:34.678Z,67.52
2023-02-28T17:14:13.377Z,67.78
2023-02-28T17:17:00.614Z,68.12
2023-02-28T17:22:46.705Z,68.45
2023-02-28T17:25:34.457Z,68.80
2023-02-28T17:28:17.945Z,68.92
2023-02-28T17:31:17.642Z,69.30
2023-02-28T17:34:03.979Z,69.64
2023-02-28T17:36:50.109Z,69.97
2023-02-28T17:39:37.422Z,69.59
2023-02-28T17:42:29.059Z,69.85
2023-02-28T17:45:13.195Z,70.30
2023-02-28T17:48:10.080Z,70.54
2023-02-28T17:51:08.280Z,71.00
2023-02-28T17:54:08.515Z,71.27
2023-02-28T17:57:02.250Z,71.28
2023-02-28T17:59:48.384Z,71.94
2023-02-28T18:02:43.498Z,71.85
2023-02-28T18:05:31.228Z,72.63
2023-02-28T18:11:21.143Z,73.21
2023-02-28T18:14:03.357Z,73.48
2023-02-28T18:16:54.504Z,73.28
2023-02-28T18:19:46.161Z,73.67
2023-02-28T18:22:33.247Z,74.03
2023-02-28T18:25:26.343Z,74.28
2023-02-28T18:28:15.459Z,73.97
2023-02-28T18:31:14.965Z,74.23
2023-02-28T18:34:14.706Z,74.75
2023-02-28T18:37:02.843Z,75.13
2023-02-28T18:39:53.050Z,75.22
2023-02-28T18:42:39.311Z,74.96
2023-02-28T18:45:29.041Z,75.27
2023-02-28T18:48:10.990Z,75.04
2023-02-28T18:50:47.354Z,74.69
2023-02-28T18:53:32.261Z,75.23
2023-02-28T18:56:16.072Z,76.19
2023-02-28T18:58:51.249Z,76.00
2023-02-28T19:01:46.774Z,75.63
2023-02-28T19:04:33.745Z,75.62
2023-02-28T19:07:20.620Z,76.34
2023-02-28T19:10:03.083Z,76.11
2023-02-28T19:13:06.444Z,75.90
2023-02-28T19:15:57.673Z,75.82
2023-02-28T19:18:46.587Z,76.11
2023-02-28T19:21:35.499Z,75.93
2023-02-28T19:24:26.223Z,77.14
2023-02-28T19:27:10.455Z,77.28
2023-02-28T19:29:59.388Z,76.93
2023-02-28T19:33:05.129Z,77.23
2023-02-28T19:36:00.105Z,76.59
2023-02-28T19:38:54.337Z,76.80
2023-02-28T19:41:32.807Z,76.89
2023-02-28T19:44:29.219Z,77.09
2023-02-28T19:47:24.471Z,77.72
2023-02-28T19:50:05.683Z,78.38
2023-02-28T19:52:53.445Z,78.93
2023-02-28T19:55:40.119Z,79.02
2023-02-28T19:58:23.104Z,79.33
2023-02-28T20:01:16.965Z,79.86
2023-02-28T20:04:12.043Z,80.57
2023-02-28T20:06:59.020Z,81.55
2023-02-28T20:09:50.892Z,80.99
2023-02-28T20:12:42.853Z,80.82
2023-02-28T20:15:27.175Z,80.85
2023-02-28T20:18:23.427Z,80.82
2023-02-28T20:21:10.025Z,81.24
2023-02-28T20:23:56.209Z,81.46
2023-02-28T20:26:45.319Z,81.29
2023-02-28T20:29:34.579Z,81.43
2023-02-28T20:32:39.846Z,81.91
2023-02-28T20:35:17.178Z,82.01
2023-02-28T20:38:09.364Z,81.93
2023-02-28T20:41:10.433Z,82.33
2023-02-28T20:43:58.578Z,82.46
2023-02-28T20:46:46.420Z,82.63
2023-02-28T20:49:44.567Z,82.36
2023-02-28T20:52:27.964Z,81.90
2023-02-28T20:55:18.137Z,81.97
2023-02-28T20:58:11.614Z,82.36
2023-02-28T21:01:07.809Z,82.51
2023-02-28T21:04:03.285Z,83.42
2023-02-28T21:06:57.710Z,83.94
2023-02-28T21:09:45.386Z,83.73
2023-02-28T21:12:19.354Z,84.44
2023-02-28T21:15:10.237Z,84.35
2023-02-28T21:17:50.877Z,84.64
2023-02-28T21:20:36.539Z,84.40
2023-02-28T21:23:29.534Z,85.07
2023-02-28T21:26:07.758Z,85.81
2023-02-28T21:28:49.412Z,86.70
2023-02-28T21:31:44.095Z,87.42
2023-02-28T21:34:34.122Z,87.86
2023-02-28T21:37:12.012Z,89.24
2023-02-28T21:39:56.829Z,89.25
2023-02-28T21:42:44.352Z,88.55
2023-02-28T21:45:25.005Z,87.81
2023-02-28T21:48:04.149Z,89.01
2023-02-28T21:51:00.173Z,88.29
2023-02-28T21:53:44.363Z,87.27
2023-02-28T21:56:37.214Z,87.17
2023-02-28T21:59:19.672Z,88.22
2023-02-28T22:02:03.460Z,88.80
2023-02-28T22:04:50.245Z,89.23
2023-02-28T22:07:40.489Z,88.54
2023-02-28T22:10:31.294Z,87.37
2023-02-28T22:13:24.353Z,87.25
2023-02-28T22:16:19.649Z,87.09
2023-02-28T22:19:07.667Z,87.13
2023-02-28T22:22:06.583Z,86.59
2023-02-28T22:24:57.365Z,86.64
2023-02-28T22:27:44.408Z,86.87
2023-02-28T22:30:34.503Z,87.35
2023-02-28T22:33:21.522Z,88.27
2023-02-28T22:36:11.201Z,88.55
2023-02-28T22:39:02.267Z,88.58
2023-02-28T22:41:41.385Z,88.28
2023-02-28T22:44:40.850Z,88.14
2023-02-28T22:47:28.720Z,88.54
2023-02-28T22:50:19.692Z,89.15
2023-02-28T22:53:06.651Z,88.76
2023-02-28T22:56:00.334Z,88.85
2023-02-28T22:58:58.758Z,89.20
2023-02-28T23:01:45.059Z,89.67
2023-02-28T23:04:36.165Z,89.67
2023-02-28T23:07:21.330Z,89.45
2023-02-28T23:10:16.697Z,89.51
2023-02-28T23:12:57.221Z,90.52
2023-02-28T23:15:42.807Z,90.66
2023-02-28T23:18:25.337Z,90.52
2023-02-28T23:21:21.141Z,90.29
2023-02-28T23:24:06.984Z,90.62
2023-02-28T23:26:55.583Z,90.96
2023-02-28T23:29:55.302Z,91.03
2023-02-28T23:32:48.122Z,91.32
2023-02-28T23:35:36.030Z,91.56
2023-02-28T23:38:19.993Z,92.08
2023-02-28T23:41:19.304Z,92.75
2023-02-28T23:44:07.785Z,92.26
2023-02-28T23:46:58.327Z,92.18
2023-02-28T23:50:02.402Z,91.91
2023-02-28T23:52:35.263Z,91.74
2023-02-28T23:55:18.722Z,91.14
2023-02-28T23:58:12.847Z,90.61
